sensor_id;sensor_type;location;lat;lon;timestamp;pressure;altitude;pressure_sealevel;temperature;humidity
35553;BME280;21656;46.054;13.614;2022-09-01T00:01:51;100336.19;;;21.60;75.55
35553;BME280;21656;46.054;13.614;2022-09-01T00:04:20;100326.88;;;21.55;76.19
35553;BME280;21656;46.054;13.614;2022-09-01T05:52:18;100263.69;;;20.92;70.54
35553;BME280;21656;46.054;13.614;2022-09-01T05:54:50;100254.81;;;20.90;71.07
35553;BME280;21656;46.054;13.614;2022-09-01T05:57:16;100266.22;;;20.93;72.49
35553;BME280;21656;46.054;13.614;2022-09-01T05:59:42;100264.28;;;20.87;71.56
35553;BME280;21656;46.054;13.614;2022-09-01T06:02:07;100262.56;;;20.86;71.27
35553;BME280;21656;46.054;13.614;2022-09-01T06:04:33;100265.69;;;20.83;72.07
35553;BME280;21656;46.054;13.614;2022-09-01T06:07:00;100268.25;;;20.85;71.68
35553;BME280;21656;46.054;13.614;2022-09-01T06:09:26;100265.69;;;20.83;71.32
35553;BME280;21656;46.054;13.614;2022-09-01T06:11:51;100273.72;;;20.85;71.76
35553;BME280;21656;46.054;13.614;2022-09-01T06:14:19;100274.13;;;20.82;73.58
35553;BME280;21656;46.054;13.614;2022-09-01T06:16:45;100287.97;;;20.80;73.16
35553;BME280;21656;46.054;13.614;2022-09-01T06:19:11;100288.75;;;20.74;73.27
35553;BME280;21656;46.054;13.614;2022-09-01T06:21:40;100282.69;;;20.78;71.74
35553;BME280;21656;46.054;13.614;2022-09-01T06:24:06;100291.94;;;20.77;73.48
35553;BME280;21656;46.054;13.614;2022-09-01T06:26:34;100296.09;;;20.73;72.91
35553;BME280;21656;46.054;13.614;2022-09-01T06:29:02;100294.25;;;20.74;72.62
35553;BME280;21656;46.054;13.614;2022-09-01T06:31:30;100295.47;;;20.71;72.62
35553;BME280;21656;46.054;13.614;2022-09-01T06:34:05;100297.81;;;20.74;72.99
35553;BME280;21656;46.054;13.614;2022-09-01T06:36:31;100287.53;;;20.76;73.06
35553;BME280;21656;46.054;13.614;2022-09-01T06:39:00;100295.91;;;20.75;71.29
35553;BME280;21656;46.054;13.614;2022-09-01T06:41:27;100295.91;;;20.75;73.12
35553;BME280;21656;46.054;13.614;2022-09-01T06:43:53;100302.22;;;20.75;72.75
35553;BME280;21656;46.054;13.614;2022-09-01T06:46:20;100309.78;;;20.73;72.44
35553;BME280;21656;46.054;13.614;2022-09-01T06:48:46;100309.41;;;20.76;73.57
35553;BME280;21656;46.054;13.614;2022-09-01T06:51:18;100310.25;;;20.77;72.68
35553;BME280;21656;46.054;13.614;2022-09-01T06:53:45;100309.41;;;20.76;73.48
35553;BME280;21656;46.054;13.614;2022-09-01T06:56:15;100310.03;;;20.78;73.57
35553;BME280;21656;46.054;13.614;2022-09-01T06:58:44;100309.59;;;20.75;73.83
35553;BME280;21656;46.054;13.614;2022-09-01T07:01:13;100308.53;;;20.76;71.99
35553;BME280;21656;46.054;13.614;2022-09-01T07:03:43;100312.34;;;20.75;73.97
35553;BME280;21656;46.054;13.614;2022-09-01T07:06:10;100310.00;;;20.72;72.53
35553;BME280;21656;46.054;13.614;2022-09-01T07:08:36;100308.50;;;20.69;70.37
35553;BME280;21656;46.054;13.614;2022-09-01T07:11:05;100299.88;;;20.72;70.99
35553;BME280;21656;46.054;13.614;2022-09-01T07:13:32;100315.53;;;20.78;73.31
35553;BME280;21656;46.054;13.614;2022-09-01T07:15:59;100311.75;;;20.80;71.01
35553;BME280;21656;46.054;13.614;2022-09-01T07:18:26;100309.47;;;20.83;72.78
35553;BME280;21656;46.054;13.614;2022-09-01T07:20:52;100312.22;;;20.83;73.13
35553;BME280;21656;46.054;13.614;2022-09-01T07:23:19;100312.03;;;20.85;73.61
35553;BME280;21656;46.054;13.614;2022-09-01T07:25:47;100314.28;;;20.81;70.17
35553;BME280;21656;46.054;13.614;2022-09-01T07:28:14;100315.59;;;20.85;72.65
35553;BME280;21656;46.054;13.614;2022-09-01T07:30:50;100310.84;;;20.94;70.59
35553;BME280;21656;46.054;13.614;2022-09-01T07:33:18;100306.78;;;21.05;70.19
35553;BME280;21656;46.054;13.614;2022-09-01T07:35:48;100316.63;;;21.20;69.53
35553;BME280;21656;46.054;13.614;2022-09-01T07:38:14;100321.50;;;21.25;68.70
35553;BME280;21656;46.054;13.614;2022-09-01T07:40:42;100330.75;;;21.24;69.25
35553;BME280;21656;46.054;13.614;2022-09-01T07:43:22;100327.63;;;21.27;68.99
35553;BME280;21656;46.054;13.614;2022-09-01T07:45:51;100328.16;;;21.37;68.81
35553;BME280;21656;46.054;13.614;2022-09-01T07:48:20;100334.09;;;21.41;68.49
35553;BME280;21656;46.054;13.614;2022-09-01T07:50:48;100323.81;;;21.43;68.08
35553;BME280;21656;46.054;13.614;2022-09-01T07:53:21;100325.88;;;21.41;67.02
35553;BME280;21656;46.054;13.614;2022-09-01T07:55:52;100320.53;;;21.33;68.10
35553;BME280;21656;46.054;13.614;2022-09-01T07:58:20;100324.94;;;21.34;67.40
35553;BME280;21656;46.054;13.614;2022-09-01T08:00:46;100331.47;;;21.33;68.23
35553;BME280;21656;46.054;13.614;2022-09-01T08:03:16;100329.19;;;21.36;67.21
35553;BME280;21656;46.054;13.614;2022-09-01T08:05:41;100336.44;;;21.44;67.05
35553;BME280;21656;46.054;13.614;2022-09-01T08:08:07;100331.69;;;21.53;66.24
35553;BME280;21656;46.054;13.614;2022-09-01T08:10:37;100327.47;;;21.50;66.91
35553;BME280;21656;46.054;13.614;2022-09-01T08:13:03;100325.38;;;21.52;67.61
35553;BME280;21656;46.054;13.614;2022-09-01T08:15:29;100320.00;;;21.66;66.04
35553;BME280;21656;46.054;13.614;2022-09-01T08:17:54;100328.13;;;21.80;67.22
35553;BME280;21656;46.054;13.614;2022-09-01T08:20:20;100325.66;;;21.92;65.41
35553;BME280;21656;46.054;13.614;2022-09-01T08:22:45;100323.97;;;21.91;65.16
35553;BME280;21656;46.054;13.614;2022-09-01T08:25:11;100338.53;;;21.92;64.18
35553;BME280;21656;46.054;13.614;2022-09-01T08:27:37;100331.25;;;22.05;65.38
35553;BME280;21656;46.054;13.614;2022-09-01T08:30:07;100344.34;;;22.10;63.85
35553;BME280;21656;46.054;13.614;2022-09-01T08:32:34;100341.81;;;22.08;63.48
35553;BME280;21656;46.054;13.614;2022-09-01T08:35:00;100353.78;;;22.01;64.53
35553;BME280;21656;46.054;13.614;2022-09-01T08:37:26;100357.97;;;21.97;64.66
35553;BME280;21656;46.054;13.614;2022-09-01T08:39:51;100355.88;;;21.99;63.15
35553;BME280;21656;46.054;13.614;2022-09-01T08:45:02;100372.25;;;21.92;62.65
35553;BME280;21656;46.054;13.614;2022-09-01T08:47:30;100367.19;;;21.89;63.55
35553;BME280;21656;46.054;13.614;2022-09-01T08:49:55;100373.91;;;21.86;64.04
35553;BME280;21656;46.054;13.614;2022-09-01T08:52:30;100363.25;;;21.98;64.29
35553;BME280;21656;46.054;13.614;2022-09-01T08:57:46;100357.59;;;22.35;62.96
35553;BME280;21656;46.054;13.614;2022-09-01T09:00:17;100355.47;;;22.30;62.93
35553;BME280;21656;46.054;13.614;2022-09-01T09:08:59;100363.25;;;22.26;63.47
35553;BME280;21656;46.054;13.614;2022-09-01T09:14:23;100373.63;;;22.31;62.28
35553;BME280;21656;46.054;13.614;2022-09-01T09:16:55;100370.25;;;22.29;61.70
35553;BME280;21656;46.054;13.614;2022-09-01T09:19:33;100384.38;;;22.26;61.92
35553;BME280;21656;46.054;13.614;2022-09-01T09:22:03;100380.31;;;22.22;62.99
35553;BME280;21656;46.054;13.614;2022-09-01T09:25:01;100369.88;;;22.11;62.42
35553;BME280;21656;46.054;13.614;2022-09-01T09:27:29;100385.03;;;22.06;64.01
35553;BME280;21656;46.054;13.614;2022-09-01T09:30:07;100374.13;;;22.13;63.85
35553;BME280;21656;46.054;13.614;2022-09-01T09:32:55;100365.75;;;22.21;63.31
35553;BME280;21656;46.054;13.614;2022-09-01T09:35:35;100373.41;;;22.26;62.46
35553;BME280;21656;46.054;13.614;2022-09-01T09:41:07;100372.34;;;22.27;60.56
35553;BME280;21656;46.054;13.614;2022-09-01T09:43:48;100362.44;;;22.26;61.90
35553;BME280;21656;46.054;13.614;2022-09-01T09:49:20;100375.13;;;22.34;61.38
35553;BME280;21656;46.054;13.614;2022-09-01T09:54:33;100364.81;;;22.42;61.03
35553;BME280;21656;46.054;13.614;2022-09-01T09:59:41;100370.78;;;22.46;61.94
35553;BME280;21656;46.054;13.614;2022-09-01T10:04:45;100366.84;;;22.62;60.08
35553;BME280;21656;46.054;13.614;2022-09-01T10:07:32;100359.25;;;22.64;60.46
35553;BME280;21656;46.054;13.614;2022-09-01T10:10:05;100358.66;;;22.75;59.78
35553;BME280;21656;46.054;13.614;2022-09-01T10:12:31;100358.88;;;22.80;58.44
35553;BME280;21656;46.054;13.614;2022-09-01T10:15:02;100350.28;;;22.90;58.34
35553;BME280;21656;46.054;13.614;2022-09-01T10:17:39;100355.59;;;22.98;56.96
35553;BME280;21656;46.054;13.614;2022-09-01T10:22:35;100361.13;;;23.05;58.19
35553;BME280;21656;46.054;13.614;2022-09-01T10:25:02;100368.09;;;23.14;56.60
35553;BME280;21656;46.054;13.614;2022-09-01T10:27:32;100358.59;;;23.10;57.96
35553;BME280;21656;46.054;13.614;2022-09-01T10:32:36;100356.72;;;23.24;56.03
35553;BME280;21656;46.054;13.614;2022-09-01T10:35:04;100365.19;;;23.29;57.15
35553;BME280;21656;46.054;13.614;2022-09-01T10:37:30;100346.78;;;23.29;56.20
35553;BME280;21656;46.054;13.614;2022-09-01T10:40:55;100356.53;;;23.25;57.19
35553;BME280;21656;46.054;13.614;2022-09-01T10:43:24;100359.28;;;23.25;56.92
35553;BME280;21656;46.054;13.614;2022-09-01T10:45:51;100358.81;;;23.22;56.37
35553;BME280;21656;46.054;13.614;2022-09-01T10:53:42;100361.97;;;23.05;56.83
35553;BME280;21656;46.054;13.614;2022-09-01T10:56:14;100362.00;;;23.12;57.40
35553;BME280;21656;46.054;13.614;2022-09-01T11:04:13;100360.94;;;23.20;56.11
35553;BME280;21656;46.054;13.614;2022-09-01T11:07:01;100358.84;;;23.28;56.62
35553;BME280;21656;46.054;13.614;2022-09-01T11:09:38;100374.06;;;23.31;58.84
35553;BME280;21656;46.054;13.614;2022-09-01T11:12:26;100368.34;;;23.26;57.89
35553;BME280;21656;46.054;13.614;2022-09-01T11:15:36;100371.28;;;23.24;57.41
35553;BME280;21656;46.054;13.614;2022-09-01T11:18:26;100379.34;;;23.26;57.65
35553;BME280;21656;46.054;13.614;2022-09-01T11:21:25;100381.25;;;23.25;59.38
35553;BME280;21656;46.054;13.614;2022-09-01T11:26:57;100379.16;;;23.27;57.87
35553;BME280;21656;46.054;13.614;2022-09-01T11:29:57;100383.78;;;23.33;56.59
35553;BME280;21656;46.054;13.614;2022-09-01T11:32:30;100381.03;;;23.20;56.72
35553;BME280;21656;46.054;13.614;2022-09-01T11:35:04;100369.00;;;23.28;57.52
35553;BME280;21656;46.054;13.614;2022-09-01T11:37:33;100371.53;;;23.36;58.17
35553;BME280;21656;46.054;13.614;2022-09-01T11:40:03;100368.81;;;23.43;58.02
35553;BME280;21656;46.054;13.614;2022-09-01T11:42:41;100371.97;;;23.59;56.60
35553;BME280;21656;46.054;13.614;2022-09-01T11:45:16;100372.88;;;23.73;56.14
35553;BME280;21656;46.054;13.614;2022-09-01T11:47:46;100373.91;;;23.72;56.83
35553;BME280;21656;46.054;13.614;2022-09-01T11:50:21;100374.16;;;23.84;55.94
35553;BME280;21656;46.054;13.614;2022-09-01T11:53:00;100374.59;;;23.88;55.07
35553;BME280;21656;46.054;13.614;2022-09-01T11:55:36;100372.44;;;23.90;54.13
35553;BME280;21656;46.054;13.614;2022-09-01T11:58:03;100375.19;;;23.90;55.31
35553;BME280;21656;46.054;13.614;2022-09-01T12:00:37;100380.72;;;24.03;55.28
35553;BME280;21656;46.054;13.614;2022-09-01T12:03:19;100369.44;;;24.31;53.79
35553;BME280;21656;46.054;13.614;2022-09-01T12:05:46;100375.56;;;24.47;53.61
35553;BME280;21656;46.054;13.614;2022-09-01T12:08:16;100366.88;;;24.56;53.62
35553;BME280;21656;46.054;13.614;2022-09-01T12:10:43;100373.66;;;24.54;52.95
35553;BME280;21656;46.054;13.614;2022-09-01T12:13:15;100359.69;;;24.35;52.50
35553;BME280;21656;46.054;13.614;2022-09-01T12:15:42;100361.78;;;24.40;54.24
35553;BME280;21656;46.054;13.614;2022-09-01T12:20:50;100360.97;;;24.33;54.72
35553;BME280;21656;46.054;13.614;2022-09-01T12:23:34;100365.81;;;24.44;54.02
35553;BME280;21656;46.054;13.614;2022-09-01T12:26:10;100361.16;;;24.44;54.16
35553;BME280;21656;46.054;13.614;2022-09-01T12:28:41;100362.88;;;24.39;52.72
35553;BME280;21656;46.054;13.614;2022-09-01T12:31:18;100354.19;;;24.49;51.73
35553;BME280;21656;46.054;13.614;2022-09-01T12:33:46;100365.34;;;24.60;51.09
35553;BME280;21656;46.054;13.614;2022-09-01T12:36:33;100369.59;;;24.43;50.84
35553;BME280;21656;46.054;13.614;2022-09-01T12:39:23;100364.34;;;24.48;50.45
35553;BME280;21656;46.054;13.614;2022-09-01T12:42:05;100374.06;;;24.44;52.57
35553;BME280;21656;46.054;13.614;2022-09-01T12:44:43;100370.72;;;24.22;52.45
35553;BME280;21656;46.054;13.614;2022-09-01T12:55:33;100370.94;;;23.61;51.84
35553;BME280;21656;46.054;13.614;2022-09-01T12:58:02;100373.28;;;23.70;51.48
35553;BME280;21656;46.054;13.614;2022-09-01T13:00:30;100355.53;;;23.79;51.05
35553;BME280;21656;46.054;13.614;2022-09-01T13:03:14;100352.13;;;23.77;50.86
35553;BME280;21656;46.054;13.614;2022-09-01T13:05:41;100361.44;;;23.90;50.50
35553;BME280;21656;46.054;13.614;2022-09-01T13:08:11;100357.44;;;23.99;51.50
35553;BME280;21656;46.054;13.614;2022-09-01T13:10:39;100368.41;;;23.92;49.82
35553;BME280;21656;46.054;13.614;2022-09-01T13:13:07;100362.50;;;23.89;50.07
35553;BME280;21656;46.054;13.614;2022-09-01T13:15:35;100358.69;;;23.90;50.01
35553;BME280;21656;46.054;13.614;2022-09-01T13:18:01;100352.38;;;23.83;49.30
35553;BME280;21656;46.054;13.614;2022-09-01T13:20:27;100352.97;;;23.71;49.85
35553;BME280;21656;46.054;13.614;2022-09-01T13:22:53;100357.88;;;23.76;49.67
35553;BME280;21656;46.054;13.614;2022-09-01T13:25:20;100365.69;;;23.79;51.30
35553;BME280;21656;46.054;13.614;2022-09-01T13:27:47;100351.53;;;23.75;49.67
35553;BME280;21656;46.054;13.614;2022-09-01T13:30:16;100356.38;;;23.80;49.44
35553;BME280;21656;46.054;13.614;2022-09-01T13:32:44;100345.41;;;23.73;49.09
35553;BME280;21656;46.054;13.614;2022-09-01T13:35:13;100349.19;;;23.72;50.48
35553;BME280;21656;46.054;13.614;2022-09-01T13:37:40;100337.31;;;23.72;49.56
35553;BME280;21656;46.054;13.614;2022-09-01T13:40:09;100355.50;;;23.66;49.95
35553;BME280;21656;46.054;13.614;2022-09-01T13:42:45;100333.72;;;23.65;50.25
35553;BME280;21656;46.054;13.614;2022-09-01T13:45:13;100338.81;;;23.68;50.02
35553;BME280;21656;46.054;13.614;2022-09-01T13:47:42;100346.19;;;23.67;50.21
35553;BME280;21656;46.054;13.614;2022-09-01T13:50:09;100341.56;;;23.61;50.10
35553;BME280;21656;46.054;13.614;2022-09-01T13:52:46;100346.22;;;23.61;50.25
35553;BME280;21656;46.054;13.614;2022-09-01T13:55:22;100333.94;;;23.70;50.73
35553;BME280;21656;46.054;13.614;2022-09-01T13:57:48;100339.66;;;23.68;50.25
35553;BME280;21656;46.054;13.614;2022-09-01T14:00:17;100329.06;;;23.72;50.15
35553;BME280;21656;46.054;13.614;2022-09-01T14:02:47;100326.75;;;23.69;50.55
35553;BME280;21656;46.054;13.614;2022-09-01T14:05:21;100338.38;;;23.71;49.14
35553;BME280;21656;46.054;13.614;2022-09-01T14:07:49;100327.84;;;23.74;49.76
35553;BME280;21656;46.054;13.614;2022-09-01T14:10:17;100332.88;;;23.71;49.16
35553;BME280;21656;46.054;13.614;2022-09-01T14:12:43;100328.84;;;23.67;50.09
35553;BME280;21656;46.054;13.614;2022-09-01T14:15:13;100345.78;;;23.64;50.01
35553;BME280;21656;46.054;13.614;2022-09-01T14:17:39;100330.75;;;23.59;50.23
35553;BME280;21656;46.054;13.614;2022-09-01T14:20:10;100339.66;;;23.62;50.39
35553;BME280;21656;46.054;13.614;2022-09-01T14:22:38;100342.38;;;23.62;50.31
35553;BME280;21656;46.054;13.614;2022-09-01T14:25:09;100342.41;;;23.55;50.71
35553;BME280;21656;46.054;13.614;2022-09-01T14:27:37;100343.44;;;23.54;51.85
35553;BME280;21656;46.054;13.614;2022-09-01T14:30:08;100341.34;;;23.56;50.51
35553;BME280;21656;46.054;13.614;2022-09-01T14:32:34;100351.91;;;23.59;50.32
35553;BME280;21656;46.054;13.614;2022-09-01T14:34:59;100334.78;;;23.57;50.44
35553;BME280;21656;46.054;13.614;2022-09-01T14:37:25;100330.53;;;23.54;51.07
35553;BME280;21656;46.054;13.614;2022-09-01T14:39:52;100342.19;;;23.56;50.98
35553;BME280;21656;46.054;13.614;2022-09-01T14:42:19;100344.50;;;23.59;51.05
35553;BME280;21656;46.054;13.614;2022-09-01T14:44:46;100337.31;;;23.58;51.60
35553;BME280;21656;46.054;13.614;2022-09-01T14:47:12;100335.19;;;23.54;51.67
35553;BME280;21656;46.054;13.614;2022-09-01T14:49:43;100344.94;;;23.56;52.26
35553;BME280;21656;46.054;13.614;2022-09-01T14:52:12;100341.97;;;23.65;51.99
35553;BME280;21656;46.054;13.614;2022-09-01T14:54:43;100340.09;;;23.78;52.02
35553;BME280;21656;46.054;13.614;2022-09-01T14:57:10;100331.03;;;23.78;51.58
35553;BME280;21656;46.054;13.614;2022-09-01T14:59:38;100330.13;;;23.71;51.69
35553;BME280;21656;46.054;13.614;2022-09-01T15:02:06;100349.59;;;23.69;52.59
35553;BME280;21656;46.054;13.614;2022-09-01T15:04:32;100340.47;;;23.62;51.04
35553;BME280;21656;46.054;13.614;2022-09-01T15:06:58;100342.38;;;23.62;51.14
35553;BME280;21656;46.054;13.614;2022-09-01T15:09:24;100348.72;;;23.62;51.04
35553;BME280;21656;46.054;13.614;2022-09-01T15:11:50;100343.47;;;23.61;52.66
35553;BME280;21656;46.054;13.614;2022-09-01T15:14:16;100341.53;;;23.54;51.95
35553;BME280;21656;46.054;13.614;2022-09-01T15:16:42;100344.94;;;23.50;53.04
35553;BME280;21656;46.054;13.614;2022-09-01T15:19:11;100343.88;;;23.38;51.95
35553;BME280;21656;46.054;13.614;2022-09-01T15:21:39;100342.16;;;23.30;52.76
35553;BME280;21656;46.054;13.614;2022-09-01T15:24:11;100351.03;;;23.25;53.02
35553;BME280;21656;46.054;13.614;2022-09-01T15:26:39;100351.66;;;23.21;53.07
35553;BME280;21656;46.054;13.614;2022-09-01T15:29:06;100350.81;;;23.20;53.87
35553;BME280;21656;46.054;13.614;2022-09-01T15:31:36;100355.47;;;23.20;53.63
35553;BME280;21656;46.054;13.614;2022-09-01T15:34:04;100359.69;;;23.22;52.58
35553;BME280;21656;46.054;13.614;2022-09-01T15:36:32;100358.22;;;23.20;53.42
35553;BME280;21656;46.054;13.614;2022-09-01T15:38:59;100358.22;;;23.20;54.88
35553;BME280;21656;46.054;13.614;2022-09-01T15:41:27;100364.53;;;23.20;54.16
35553;BME280;21656;46.054;13.614;2022-09-01T15:43:53;100360.94;;;23.20;53.95
35553;BME280;21656;46.054;13.614;2022-09-01T15:46:19;100356.72;;;23.17;54.45
35553;BME280;21656;46.054;13.614;2022-09-01T15:48:45;100363.69;;;23.13;54.20
35553;BME280;21656;46.054;13.614;2022-09-01T15:53:51;100358.59;;;23.10;53.41
35553;BME280;21656;46.054;13.614;2022-09-01T15:58:48;100366.19;;;23.08;54.76
35553;BME280;21656;46.054;13.614;2022-09-01T16:01:16;100372.53;;;23.02;53.67
35553;BME280;21656;46.054;13.614;2022-09-01T16:03:44;100366.81;;;23.03;54.38
35553;BME280;21656;46.054;13.614;2022-09-01T16:06:12;100366.59;;;22.98;52.41
35553;BME280;21656;46.054;13.614;2022-09-01T16:08:40;100364.03;;;22.97;53.77
35553;BME280;21656;46.054;13.614;2022-09-01T16:11:07;100358.72;;;22.95;54.54
35553;BME280;21656;46.054;13.614;2022-09-01T16:13:42;100363.34;;;22.88;54.52
35553;BME280;21656;46.054;13.614;2022-09-01T16:24:22;100378.94;;;22.74;54.70
35553;BME280;21656;46.054;13.614;2022-09-01T16:26:51;100379.94;;;22.66;55.13
35553;BME280;21656;46.054;13.614;2022-09-01T16:31:54;100391.53;;;22.62;54.37
35553;BME280;21656;46.054;13.614;2022-09-01T16:34:22;100386.47;;;22.59;55.07
35553;BME280;21656;46.054;13.614;2022-09-01T16:39:35;100394.22;;;22.55;55.48
35553;BME280;21656;46.054;13.614;2022-09-01T16:47:24;100410.25;;;22.52;54.93
35553;BME280;21656;46.054;13.614;2022-09-01T16:53:05;100407.22;;;22.40;56.14
35553;BME280;21656;46.054;13.614;2022-09-01T17:06:30;100402.44;;;22.20;56.56
35553;BME280;21656;46.054;13.614;2022-09-01T17:09:08;100420.13;;;22.18;59.23
35553;BME280;21656;46.054;13.614;2022-09-01T17:11:43;100420.50;;;22.08;56.77
35553;BME280;21656;46.054;13.614;2022-09-01T17:14:16;100421.91;;;22.04;56.20
35553;BME280;21656;46.054;13.614;2022-09-01T17:16:51;100424.66;;;22.04;56.89
35553;BME280;21656;46.054;13.614;2022-09-01T17:19:26;100421.84;;;21.97;58.67
35553;BME280;21656;46.054;13.614;2022-09-01T17:22:00;100433.63;;;21.91;58.05
35553;BME280;21656;46.054;13.614;2022-09-01T17:24:45;100438.63;;;21.88;58.27
35553;BME280;21656;46.054;13.614;2022-09-01T17:30:00;100429.91;;;21.77;59.04
35553;BME280;21656;46.054;13.614;2022-09-01T17:35:11;100442.91;;;21.69;60.19
35553;BME280;21656;46.054;13.614;2022-09-01T17:37:57;100443.97;;;21.68;60.64
35553;BME280;21656;46.054;13.614;2022-09-01T17:46:32;100453.47;;;21.50;61.45
35553;BME280;21656;46.054;13.614;2022-09-01T17:49:18;100458.59;;;21.38;61.53
35553;BME280;21656;46.054;13.614;2022-09-01T17:55:09;100463.94;;;21.32;62.88
35553;BME280;21656;46.054;13.614;2022-09-01T17:57:31;100466.16;;;21.21;61.93
35553;BME280;21656;46.054;13.614;2022-09-01T18:00:25;100472.94;;;21.26;59.97
35553;BME280;21656;46.054;13.614;2022-09-01T18:03:22;100475.28;;;21.29;60.56
35553;BME280;21656;46.054;13.614;2022-09-01T18:06:09;100468.25;;;21.19;61.44
35553;BME280;21656;46.054;13.614;2022-09-01T18:08:43;100481.47;;;21.16;59.74
35553;BME280;21656;46.054;13.614;2022-09-01T18:16:46;100488.44;;;21.18;62.48
35553;BME280;21656;46.054;13.614;2022-09-01T18:19:20;100489.50;;;21.17;61.25
35553;BME280;21656;46.054;13.614;2022-09-01T18:21:58;100492.28;;;21.24;62.76
35553;BME280;21656;46.054;13.614;2022-09-01T18:27:22;100502.53;;;21.15;62.17
35553;BME280;21656;46.054;13.614;2022-09-01T18:29:51;100503.75;;;21.13;60.88
35553;BME280;21656;46.054;13.614;2022-09-01T18:40:36;100523.47;;;21.23;61.32
35553;BME280;21656;46.054;13.614;2022-09-01T18:43:08;100521.88;;;21.14;61.87
35553;BME280;21656;46.054;13.614;2022-09-01T18:53:43;100554.94;;;21.12;60.91
35553;BME280;21656;46.054;13.614;2022-09-01T19:03:59;100560.47;;;21.19;63.31
35553;BME280;21656;46.054;13.614;2022-09-01T19:09:23;100570.50;;;21.12;63.26
35553;BME280;21656;46.054;13.614;2022-09-01T19:17:33;100577.88;;;20.96;64.24
35553;BME280;21656;46.054;13.614;2022-09-01T19:20:09;100571.91;;;20.93;64.57
35553;BME280;21656;46.054;13.614;2022-09-01T19:22:42;100572.84;;;21.00;64.87
35553;BME280;21656;46.054;13.614;2022-09-01T19:25:16;100580.69;;;21.03;64.11
35553;BME280;21656;46.054;13.614;2022-09-01T19:28:08;100577.56;;;21.06;64.27
35553;BME280;21656;46.054;13.614;2022-09-01T19:30:41;100581.06;;;21.00;63.20
35553;BME280;21656;46.054;13.614;2022-09-01T19:33:12;100581.34;;;21.05;63.82
35553;BME280;21656;46.054;13.614;2022-09-01T19:35:39;100584.47;;;21.02;63.99
35553;BME280;21656;46.054;13.614;2022-09-01T19:38:12;100589.75;;;21.04;63.78
35553;BME280;21656;46.054;13.614;2022-09-01T19:40:42;100586.72;;;20.98;63.78
35553;BME280;21656;46.054;13.614;2022-09-01T19:43:13;100573.25;;;20.97;61.97
35553;BME280;21656;46.054;13.614;2022-09-01T19:45:51;100584.53;;;20.94;61.18
35553;BME280;21656;46.054;13.614;2022-09-01T19:48:26;100580.59;;;20.96;63.95
35553;BME280;21656;46.054;13.614;2022-09-01T19:50:57;100587.94;;;20.96;63.56
35553;BME280;21656;46.054;13.614;2022-09-01T19:53:43;100592.13;;;20.92;61.80
35553;BME280;21656;46.054;13.614;2022-09-01T19:56:45;100589.56;;;20.90;63.47
35553;BME280;21656;46.054;13.614;2022-09-01T19:59:20;100589.06;;;20.72;62.28
35553;BME280;21656;46.054;13.614;2022-09-01T20:02:09;100595.38;;;20.72;63.26
35553;BME280;21656;46.054;13.614;2022-09-01T20:07:45;100597.06;;;20.73;63.55
35553;BME280;21656;46.054;13.614;2022-09-01T20:19:07;100600.44;;;20.61;64.34
35553;BME280;21656;46.054;13.614;2022-09-01T20:21:38;100601.31;;;20.53;63.44
35553;BME280;21656;46.054;13.614;2022-09-01T20:29:34;100611.63;;;20.51;66.42
35553;BME280;21656;46.054;13.614;2022-09-01T20:32:05;100606.56;;;20.40;64.36
35553;BME280;21656;46.054;13.614;2022-09-01T20:40:05;100605.78;;;20.31;63.89
35553;BME280;21656;46.054;13.614;2022-09-01T20:42:34;100610.38;;;20.30;64.57
35553;BME280;21656;46.054;13.614;2022-09-01T20:45:17;100608.34;;;20.32;63.23
35553;BME280;21656;46.054;13.614;2022-09-01T20:48:04;100617.34;;;20.41;65.63
35553;BME280;21656;46.054;13.614;2022-09-01T20:50:38;100616.06;;;20.29;65.51
35553;BME280;21656;46.054;13.614;2022-09-01T20:58:28;100623.13;;;20.23;65.25
35553;BME280;21656;46.054;13.614;2022-09-01T21:07:27;100630.50;;;20.14;64.51
35553;BME280;21656;46.054;13.614;2022-09-01T21:12:47;100631.72;;;20.12;66.17
35553;BME280;21656;46.054;13.614;2022-09-01T21:18:14;100639.44;;;20.08;65.87
35553;BME280;21656;46.054;13.614;2022-09-01T21:21:00;100640.16;;;20.02;67.04
35553;BME280;21656;46.054;13.614;2022-09-01T21:23:28;100634.88;;;20.01;67.82
35553;BME280;21656;46.054;13.614;2022-09-01T21:25:54;100631.00;;;19.87;67.34
35553;BME280;21656;46.054;13.614;2022-09-01T21:28:20;100634.78;;;19.86;67.20
35553;BME280;21656;46.054;13.614;2022-09-01T21:30:51;100641.25;;;19.93;67.57
35553;BME280;21656;46.054;13.614;2022-09-01T21:33:22;100640.38;;;19.92;69.76
35553;BME280;21656;46.054;13.614;2022-09-01T21:35:48;100642.47;;;19.82;69.66
35553;BME280;21656;46.054;13.614;2022-09-01T21:38:13;100641.06;;;19.55;70.54
35553;BME280;21656;46.054;13.614;2022-09-01T21:40:39;100649.91;;;19.57;69.68
35553;BME280;21656;46.054;13.614;2022-09-01T21:43:07;100637.88;;;19.35;69.91
35553;BME280;21656;46.054;13.614;2022-09-01T21:45:35;100633.09;;;19.37;71.17
35553;BME280;21656;46.054;13.614;2022-09-01T21:48:02;100638.72;;;19.36;70.52
35553;BME280;21656;46.054;13.614;2022-09-01T21:50:28;100630.91;;;19.24;71.73
35553;BME280;21656;46.054;13.614;2022-09-01T21:52:53;100640.47;;;19.20;71.42
35553;BME280;21656;46.054;13.614;2022-09-01T21:55:19;100631.91;;;19.32;72.61
35553;BME280;21656;46.054;13.614;2022-09-01T21:57:45;100630.03;;;19.24;73.49
35553;BME280;21656;46.054;13.614;2022-09-01T22:00:24;100615.50;;;19.32;73.10